createdAt,value
2018-04-16T00:01:29.651Z,99359
2018-04-16T00:03:57.700Z,99354
2018-04-16T00:06:25.827Z,99353
2018-04-16T00:08:53.867Z,99357
2018-04-16T00:11:26.896Z,99356
2018-04-16T00:13:54.947Z,99358
2018-04-16T00:16:22.995Z,99359
2018-04-16T00:18:51.036Z,99352
2018-04-16T00:21:19.855Z,99361
2018-04-16T00:23:47.899Z,99360
2018-04-16T00:26:15.948Z,99363
2018-04-16T00:28:43.995Z,99371
2018-04-16T00:31:12.808Z,99376
2018-04-16T00:33:46.338Z,99381
2018-04-16T00:39:23.442Z,99383
2018-04-16T00:41:57.796Z,99386
2018-04-16T00:44:31.567Z,99387
2018-04-16T00:47:05.175Z,99390
2018-04-16T00:49:38.836Z,99387
2018-04-16T00:52:12.420Z,99402
2018-04-16T00:54:46.069Z,99403
2018-04-16T00:57:19.752Z,99403
2018-04-16T00:59:53.275Z,99405
2018-04-16T01:02:27.807Z,99410
2018-04-16T01:05:02.198Z,99403
2018-04-16T01:07:35.818Z,99402
2018-04-16T01:10:09.562Z,99403
2018-04-16T01:12:43.160Z,99409
2018-04-16T01:15:16.923Z,99408
2018-04-16T01:17:50.438Z,99414
2018-04-16T01:20:23.946Z,99411
2018-04-16T01:22:57.481Z,99407
2018-04-16T01:25:31.034Z,99407
2018-04-16T01:28:04.591Z,99405
2018-04-16T01:30:38.199Z,99407
2018-04-16T01:33:12.484Z,99398
2018-04-16T01:35:46.069Z,99404
2018-04-16T01:38:19.889Z,99404
2018-04-16T01:40:53.503Z,99403
2018-04-16T01:43:27.292Z,99400
2018-04-16T01:46:01.764Z,99401
2018-04-16T01:48:35.440Z,99409
2018-04-16T01:51:09.851Z,99409
2018-04-16T01:53:43.576Z,99405
2018-04-16T01:56:17.195Z,99410
2018-04-16T01:58:50.911Z,99410
2018-04-16T02:01:24.554Z,99408
2018-04-16T02:03:58.351Z,99412
2018-04-16T02:06:32.887Z,99415
2018-04-16T02:09:07.294Z,99412
2018-04-16T02:11:40.803Z,99416
2018-04-16T02:14:14.429Z,99422
2018-04-16T02:19:49.479Z,99421
2018-04-16T02:22:23.119Z,99426
2018-04-16T02:28:01.016Z,99422
2018-04-16T02:30:34.615Z,99424
2018-04-16T02:33:08.944Z,99421
2018-04-16T02:35:42.552Z,99422
2018-04-16T02:38:16.152Z,99425
2018-04-16T02:40:49.883Z,99426
2018-04-16T02:43:23.513Z,99431
2018-04-16T02:45:58.055Z,99436
2018-04-16T02:48:32.604Z,99438
2018-04-16T02:51:06.227Z,99447
2018-04-16T02:53:39.955Z,99448
2018-04-16T02:56:13.619Z,99445
2018-04-16T02:58:48.747Z,99446
2018-04-16T03:01:22.350Z,99449
2018-04-16T03:03:56.129Z,99450
2018-04-16T03:09:38.045Z,99452
2018-04-16T03:12:11.771Z,99458
2018-04-16T03:14:45.504Z,99461
2018-04-16T03:17:19.065Z,99458
2018-04-16T03:19:52.864Z,99458
2018-04-16T03:22:26.458Z,99461
2018-04-16T03:25:00.901Z,99462
2018-04-16T03:27:35.387Z,99460
2018-04-16T03:30:09.013Z,99460
2018-04-16T03:32:42.760Z,99459
2018-04-16T03:35:17.066Z,99466
2018-04-16T03:37:50.807Z,99471
2018-04-16T03:40:25.212Z,99469
2018-04-16T03:42:58.853Z,99471
2018-04-16T03:45:32.451Z,99470
2018-04-16T03:48:06.231Z,99468
2018-04-16T03:53:52.130Z,99472
2018-04-16T03:56:20.956Z,99472
2018-04-16T03:58:49.008Z,99474
2018-04-16T04:01:17.103Z,99474
2018-04-16T04:03:45.098Z,99471
2018-04-16T04:06:13.163Z,99472
2018-04-16T04:08:41.214Z,99482
2018-04-16T04:11:09.269Z,99485
2018-04-16T04:13:37.319Z,99490
2018-04-16T04:16:06.144Z,99489
2018-04-16T04:18:34.197Z,99490
2018-04-16T04:21:02.322Z,99492
2018-04-16T04:23:48.231Z,99496
2018-04-16T04:26:34.439Z,99499
2018-04-16T04:29:20.446Z,99503
2018-04-16T04:31:48.531Z,99506
2018-04-16T04:34:16.585Z,99508
2018-04-16T04:36:45.405Z,99509
2018-04-16T04:39:14.207Z,99512
2018-04-16T04:41:42.305Z,99517
2018-04-16T04:44:10.352Z,99514
2018-04-16T04:46:38.483Z,99525
2018-04-16T04:49:06.570Z,99525
2018-04-16T04:51:34.624Z,99528
2018-04-16T04:54:03.431Z,99530
2018-04-16T04:56:32.351Z,99533
2018-04-16T04:59:00.433Z,99540
2018-04-16T05:01:28.517Z,99537
2018-04-16T05:03:56.611Z,99539
2018-04-16T05:06:24.668Z,99545
2018-04-16T05:08:53.491Z,99543
2018-04-16T05:11:21.548Z,99544
2018-04-16T05:13:50.375Z,99542
2018-04-16T05:16:18.424Z,99539
2018-04-16T05:18:46.479Z,99545
2018-04-16T05:21:14.538Z,99548
2018-04-16T05:23:42.616Z,99555
2018-04-16T05:26:10.681Z,99557
2018-04-16T05:28:39.500Z,99560
2018-04-16T05:31:07.559Z,99560
2018-04-16T05:33:36.367Z,99560
2018-04-16T05:36:05.184Z,99562
2018-04-16T05:38:33.224Z,99567
2018-04-16T05:41:02.356Z,99571
2018-04-16T05:43:31.184Z,99572
2018-04-16T05:45:59.280Z,99577
2018-04-16T05:48:27.335Z,99580
2018-04-16T05:50:56.147Z,99581
2018-04-16T05:53:24.202Z,99586
2018-04-16T05:55:52.251Z,99586
2018-04-16T05:58:20.309Z,99590
2018-04-16T06:00:48.359Z,99596
2018-04-16T06:03:16.409Z,99600
2018-04-16T06:05:44.456Z,99599
2018-04-16T06:08:12.508Z,99604
2018-04-16T06:10:40.562Z,99609
2018-04-16T06:13:08.723Z,99608
2018-04-16T06:15:36.772Z,99613
2018-04-16T06:18:04.827Z,99613
2018-04-16T06:20:32.975Z,99611
2018-04-16T06:23:01.035Z,99618
2018-04-16T06:25:29.871Z,99619
2018-04-16T06:27:57.931Z,99622
2018-04-16T06:30:25.979Z,99625
2018-04-16T06:32:54.038Z,99627
2018-04-16T06:35:22.094Z,99618
2018-04-16T06:37:50.183Z,99616
2018-04-16T06:40:18.244Z,99620
2018-04-16T06:42:47.059Z,99619
2018-04-16T06:45:15.137Z,99618
2018-04-16T06:47:43.955Z,99630
2018-04-16T06:50:12.007Z,99620
2018-04-16T06:52:40.824Z,99625
2018-04-16T06:55:09.652Z,99628
2018-04-16T06:57:37.700Z,99633
2018-04-16T07:00:06.554Z,99632
2018-04-16T07:02:34.591Z,99635
2018-04-16T07:05:03.425Z,99641
2018-04-16T07:07:31.500Z,99640
2018-04-16T07:09:59.584Z,99634
2018-04-16T07:12:27.620Z,99628
2018-04-16T07:14:56.443Z,99634
2018-04-16T07:17:25.264Z,99630
2018-04-16T07:19:54.070Z,99630
2018-04-16T07:22:22.120Z,99626
2018-04-16T07:24:50.175Z,99624
2018-04-16T07:27:18.293Z,99632
2018-04-16T07:29:46.295Z,99621
2018-04-16T07:32:15.099Z,99626
2018-04-16T07:34:43.196Z,99625
2018-04-16T07:37:11.239Z,99622
2018-04-16T07:39:39.291Z,99625
2018-04-16T07:42:07.367Z,99626
2018-04-16T07:44:35.443Z,99630
2018-04-16T07:47:03.494Z,99624
2018-04-16T07:49:32.304Z,99623
2018-04-16T07:52:01.127Z,99627
2018-04-16T07:54:29.171Z,99626
2018-04-16T07:56:57.234Z,99632
2018-04-16T07:59:25.380Z,99631
2018-04-16T08:01:53.435Z,99630
2018-04-16T08:04:22.251Z,99628
2018-04-16T08:06:51.072Z,99627
2018-04-16T08:09:19.119Z,99628
2018-04-16T08:11:47.168Z,99624
2018-04-16T08:14:15.207Z,99621
2018-04-16T08:16:44.024Z,99624
2018-04-16T08:19:12.115Z,99623
2018-04-16T08:21:40.174Z,99631
2018-04-16T08:24:08.985Z,99627
2018-04-16T08:26:37.039Z,99628
2018-04-16T08:29:05.167Z,99627
2018-04-16T08:31:33.219Z,99626
2018-04-16T08:34:02.030Z,99629
2018-04-16T08:36:30.843Z,99622
2018-04-16T08:38:58.884Z,99621
2018-04-16T08:41:28.460Z,99623
2018-04-16T08:43:56.516Z,99618
2018-04-16T08:46:24.633Z,99616
2018-04-16T08:48:52.671Z,99621
2018-04-16T08:51:20.723Z,99624
2018-04-16T08:53:48.767Z,99618
2018-04-16T08:56:16.823Z,99620
2018-04-16T08:58:44.859Z,99620
2018-04-16T09:01:12.911Z,99622
2018-04-16T09:03:41.737Z,99618
2018-04-16T09:06:09.776Z,99624
2018-04-16T09:08:37.904Z,99622
2018-04-16T09:11:05.947Z,99620
2018-04-16T09:13:34.003Z,99627
2018-04-16T09:16:02.056Z,99619
2018-04-16T09:18:30.139Z,99628
2018-04-16T09:20:58.180Z,99626
2018-04-16T09:23:26.311Z,99625
2018-04-16T09:25:54.354Z,99625
2018-04-16T09:28:22.413Z,99629
2018-04-16T09:30:50.457Z,99632
2018-04-16T09:33:18.503Z,99629
2018-04-16T09:35:46.547Z,99628
2018-04-16T09:38:14.595Z,99631
2018-04-16T09:40:43.399Z,99631
2018-04-16T09:43:12.229Z,99636
2018-04-16T09:45:40.272Z,99639
2018-04-16T09:48:08.316Z,99641
2018-04-16T09:50:36.360Z,99639
2018-04-16T09:53:05.291Z,99638
2018-04-16T09:55:33.315Z,99640
2018-04-16T09:58:01.447Z,99642
2018-04-16T10:00:29.486Z,99639
2018-04-16T10:03:08.343Z,99641
2018-04-16T10:05:37.276Z,99641
2018-04-16T10:08:05.328Z,99641
2018-04-16T10:10:33.367Z,99638
2018-04-16T10:13:01.429Z,99640
2018-04-16T10:15:29.518Z,99639
2018-04-16T10:17:57.591Z,99641
2018-04-16T10:20:25.612Z,99640
2018-04-16T10:22:53.652Z,99644
2018-04-16T10:25:22.468Z,99645
2018-04-16T10:27:50.511Z,99644
2018-04-16T10:30:18.639Z,99643
2018-04-16T10:32:46.691Z,99645
2018-04-16T10:35:15.500Z,99644
2018-04-16T10:37:44.303Z,99645
2018-04-16T10:40:13.122Z,99646
2018-04-16T10:42:41.228Z,99645
2018-04-16T10:45:09.307Z,99652
2018-04-16T10:47:37.355Z,99651
2018-04-16T10:50:06.176Z,99655
2018-04-16T10:52:34.227Z,99651
2018-04-16T10:55:03.783Z,99657
2018-04-16T10:57:31.823Z,99652
2018-04-16T10:59:59.961Z,99643
2018-04-16T11:02:28.047Z,99649
2018-04-16T11:04:56.107Z,99654
2018-04-16T11:07:24.950Z,99645
2018-04-16T11:09:53.735Z,99652
2018-04-16T11:12:21.776Z,99654
2018-04-16T11:14:49.825Z,99657
2018-04-16T11:17:17.871Z,99663
2018-04-16T11:19:46.688Z,99671
2018-04-16T11:22:14.728Z,99667
2018-04-16T11:24:42.771Z,99661
2018-04-16T11:27:10.815Z,99655
2018-04-16T11:29:39.637Z,99664
2018-04-16T11:32:07.679Z,99661
2018-04-16T11:34:37.252Z,99666
2018-04-16T11:37:05.291Z,99663
2018-04-16T11:39:33.433Z,99659
2018-04-16T11:42:01.471Z,99664
2018-04-16T11:44:30.278Z,99663
2018-04-16T11:46:59.087Z,99671
2018-04-16T11:49:27.901Z,99668
2018-04-16T11:51:55.943Z,99667
2018-04-16T11:54:23.979Z,99660
2018-04-16T11:56:52.034Z,99662
2018-04-16T11:59:20.848Z,99665
2018-04-16T12:01:48.899Z,99658
2018-04-16T12:04:16.958Z,99654
2018-04-16T12:06:44.993Z,99668
2018-04-16T12:09:13.796Z,99660
2018-04-16T12:11:42.611Z,99658
2018-04-16T12:14:10.651Z,99664
2018-04-16T12:16:38.746Z,99668
2018-04-16T12:19:06.778Z,99664
2018-04-16T12:21:35.679Z,99673
2018-04-16T12:24:03.721Z,99670
2018-04-16T12:26:32.589Z,99683
2018-04-16T12:29:00.655Z,99681
2018-04-16T12:31:28.720Z,99670
2018-04-16T12:33:56.764Z,99670
2018-04-16T12:36:24.812Z,99674
2018-04-16T12:38:52.981Z,99675
2018-04-16T12:41:21.774Z,99677
2018-04-16T12:43:49.821Z,99675
2018-04-16T12:46:17.873Z,99676
2018-04-16T12:48:45.911Z,99671
2018-04-16T12:51:14.727Z,99660
2018-04-16T12:53:43.539Z,99655
2018-04-16T12:56:11.591Z,99658
2018-04-16T12:58:39.635Z,99661
2018-04-16T13:01:07.683Z,99662
2018-04-16T13:03:36.491Z,99662
2018-04-16T13:06:04.539Z,99669
2018-04-16T13:08:32.590Z,99665
2018-04-16T13:11:00.643Z,99668
2018-04-16T13:13:28.916Z,99660
2018-04-16T13:15:57.948Z,99663
2018-04-16T13:18:25.988Z,99655
2018-04-16T13:20:54.059Z,99659
2018-04-16T13:23:22.107Z,99657
2018-04-16T13:25:50.147Z,99659
2018-04-16T13:28:18.199Z,99658
2018-04-16T13:30:46.235Z,99657
2018-04-16T13:33:15.048Z,99656
2018-04-16T13:35:43.087Z,99663
2018-04-16T13:38:11.143Z,99667
2018-04-16T13:40:39.179Z,99675
2018-04-16T13:43:07.997Z,99671
2018-04-16T13:45:36.814Z,99668
2018-04-16T13:48:04.859Z,99667
2018-04-16T13:50:32.951Z,99672
2018-04-16T13:53:00.954Z,99677
2018-04-16T13:55:28.993Z,99673
2018-04-16T13:57:57.045Z,99672
2018-04-16T14:00:25.083Z,99671
2018-04-16T14:02:53.139Z,99670
2018-04-16T14:05:21.175Z,99663
2018-04-16T14:07:49.221Z,99666
2018-04-16T14:10:17.266Z,99666
2018-04-16T14:12:45.312Z,99661
2018-04-16T14:15:14.124Z,99659
2018-04-16T14:17:42.941Z,99665
2018-04-16T14:20:10.979Z,99669
2018-04-16T14:22:39.261Z,99667
2018-04-16T14:25:07.308Z,99673
2018-04-16T14:27:35.355Z,99673
2018-04-16T14:30:03.399Z,99669
2018-04-16T14:32:31.438Z,99669
2018-04-16T14:34:59.487Z,99670
2018-04-16T14:37:27.528Z,99673
2018-04-16T14:39:55.579Z,99675
2018-04-16T14:42:24.380Z,99678
2018-04-16T14:44:53.208Z,99677
2018-04-16T14:47:21.251Z,99680
2018-04-16T14:49:49.314Z,99685
2018-04-16T14:52:17.361Z,99685
2018-04-16T14:54:45.407Z,99680
2018-04-16T14:57:13.448Z,99685
2018-04-16T14:59:41.507Z,99688
2018-04-16T15:02:09.547Z,99694
2018-04-16T15:04:37.599Z,99695
2018-04-16T15:07:05.643Z,99697
2018-04-16T15:09:34.469Z,99704
2018-04-16T15:12:02.503Z,99700
2018-04-16T15:14:30.555Z,99701
2018-04-16T15:16:58.595Z,99697
2018-04-16T15:19:27.408Z,99698
2018-04-16T15:21:56.228Z,99701
2018-04-16T15:24:24.276Z,99699
2018-04-16T15:26:52.311Z,99704
2018-04-16T15:29:20.368Z,99708
2018-04-16T15:31:48.409Z,99709
2018-04-16T15:34:16.451Z,99709
2018-04-16T15:36:44.499Z,99709
2018-04-16T15:39:12.539Z,99714
2018-04-16T15:41:40.639Z,99711
2018-04-16T15:44:08.672Z,99713
2018-04-16T15:46:37.484Z,99707
2018-04-16T15:49:05.524Z,99705
2018-04-16T15:51:33.579Z,99701
2018-04-16T15:54:01.640Z,99702
2018-04-16T15:56:29.682Z,99705
2018-04-16T15:58:57.728Z,99709
2018-04-16T16:01:25.796Z,99708
2018-04-16T16:03:54.585Z,99702
2018-04-16T16:06:22.632Z,99708
2018-04-16T16:08:50.683Z,99714
2018-04-16T16:11:18.727Z,99710
2018-04-16T16:13:47.538Z,99717
2018-04-16T16:16:16.364Z,99728
2018-04-16T16:18:44.400Z,99731
2018-04-16T16:21:12.522Z,99727
2018-04-16T16:23:40.571Z,99727
2018-04-16T16:26:08.637Z,99733
2018-04-16T16:28:36.685Z,99731
2018-04-16T16:31:04.718Z,99730
2018-04-16T16:33:32.803Z,99729
2018-04-16T16:36:00.845Z,99732
2018-04-16T16:38:28.886Z,99734
2018-04-16T16:40:57.700Z,99732
2018-04-16T16:43:25.739Z,99741
2018-04-16T16:45:53.828Z,99740
2018-04-16T16:48:21.879Z,99737
2018-04-16T16:50:49.919Z,99739
2018-04-16T16:53:17.973Z,99738
2018-04-16T16:55:46.020Z,99738
2018-04-16T16:58:14.072Z,99747
2018-04-16T17:00:42.879Z,99753
2018-04-16T17:03:11.699Z,99754
2018-04-16T17:05:39.744Z,99757
2018-04-16T17:08:07.787Z,99762
2018-04-16T17:10:35.838Z,99762
2018-04-16T17:13:04.648Z,99769
2018-04-16T17:15:32.755Z,99770
2018-04-16T17:18:00.815Z,99771
2018-04-16T17:20:29.631Z,99775
2018-04-16T17:22:57.684Z,99774
2018-04-16T17:25:25.811Z,99776
2018-04-16T17:27:53.892Z,99783
2018-04-16T17:30:21.939Z,99799
2018-04-16T17:32:50.061Z,99796
2018-04-16T17:35:18.130Z,99796
2018-04-16T17:37:46.940Z,99805
2018-04-16T17:40:15.028Z,99812
2018-04-16T17:42:43.077Z,99814
2018-04-16T17:45:11.213Z,99814
2018-04-16T17:47:39.292Z,99812
2018-04-16T17:50:07.339Z,99822
2018-04-16T17:52:36.168Z,99826
2018-04-16T17:55:04.226Z,99831
2018-04-16T17:57:32.343Z,99844
2018-04-16T18:00:00.398Z,99839
2018-04-16T18:02:28.511Z,99851
2018-04-16T18:04:56.605Z,99852
2018-04-16T18:07:24.651Z,99866
2018-04-16T18:09:53.474Z,99871
2018-04-16T18:12:21.533Z,99872
2018-04-16T18:14:49.656Z,99876
2018-04-16T18:17:17.691Z,99886
2018-04-16T18:19:45.771Z,99890
2018-04-16T18:22:13.820Z,99897
2018-04-16T18:24:41.877Z,99897
2018-04-16T18:27:10.690Z,99905
2018-04-16T18:29:38.775Z,99906
2018-04-16T18:32:06.823Z,99908
2018-04-16T18:34:34.882Z,99918
2018-04-16T18:37:02.926Z,99921
2018-04-16T18:39:30.980Z,99927
2018-04-16T18:41:59.099Z,99935
2018-04-16T18:44:27.152Z,99939
2018-04-16T18:46:55.191Z,99942
2018-04-16T18:49:23.239Z,99958
2018-04-16T18:51:52.056Z,99964
2018-04-16T18:54:20.143Z,99979
2018-04-16T18:56:48.186Z,99977
2018-04-16T18:59:16.232Z,99979
2018-04-16T19:01:44.291Z,99985
2018-04-16T19:04:12.381Z,99986
2018-04-16T19:06:40.466Z,99994
2018-04-16T19:09:08.554Z,99994
2018-04-16T19:11:36.631Z,100007
2018-04-16T19:14:04.692Z,100008
2018-04-16T19:16:33.583Z,100015
2018-04-16T19:19:01.629Z,100021
2018-04-16T19:21:35.224Z,100028
2018-04-16T19:24:03.316Z,100035
2018-04-16T19:26:31.374Z,100032
2018-04-16T19:29:00.205Z,100037
2018-04-16T19:31:28.260Z,100047
2018-04-16T19:34:02.800Z,100049
2018-04-16T19:36:30.871Z,100051
2018-04-16T19:38:59.681Z,100052
2018-04-16T19:41:34.071Z,100058
2018-04-16T19:44:02.116Z,100060
2018-04-16T19:46:30.179Z,100067
2018-04-16T19:49:04.613Z,100079
2018-04-16T19:51:32.672Z,100082
2018-04-16T19:54:00.726Z,100085
2018-04-16T19:56:34.301Z,100089
2018-04-16T19:59:03.200Z,100097
2018-04-16T20:01:32.028Z,100094
2018-04-16T20:04:00.948Z,100093
2018-04-16T20:06:29.002Z,100104
2018-04-16T20:08:57.821Z,100109
2018-04-16T20:11:25.893Z,100119
2018-04-16T20:13:54.734Z,100128
2018-04-16T20:16:22.797Z,100124
2018-04-16T20:18:51.599Z,100130
2018-04-16T20:21:19.645Z,100137
2018-04-16T20:23:47.839Z,100144
2018-04-16T20:26:16.640Z,100148
2018-04-16T20:28:45.465Z,100153
2018-04-16T20:31:13.555Z,100151
2018-04-16T20:33:41.615Z,100158
2018-04-16T20:36:10.434Z,100158
2018-04-16T20:38:38.482Z,100163
2018-04-16T20:41:06.538Z,100160
2018-04-16T20:43:34.698Z,100159
2018-04-16T20:46:02.752Z,100164
2018-04-16T20:48:31.584Z,100171
2018-04-16T20:50:59.674Z,100167
2018-04-16T20:53:27.728Z,100170
2018-04-16T20:55:56.558Z,100179
2018-04-16T20:58:24.611Z,100181
2018-04-16T21:00:53.423Z,100185
2018-04-16T21:03:22.248Z,100186
2018-04-16T21:05:50.329Z,100184
2018-04-16T21:08:18.424Z,100187
2018-04-16T21:10:46.504Z,100184
2018-04-16T21:13:14.552Z,100188
2018-04-16T21:15:43.394Z,100191
2018-04-16T21:18:11.455Z,100196
2018-04-16T21:20:40.267Z,100196
2018-04-16T21:23:08.360Z,100197
2018-04-16T21:25:36.445Z,100198
2018-04-16T21:28:05.347Z,100206
2018-04-16T21:30:33.402Z,100197
2018-04-16T21:33:02.213Z,100200
2018-04-16T21:35:31.035Z,100203
2018-04-16T21:37:59.126Z,100196
2018-04-16T21:40:27.171Z,100196
2018-04-16T21:42:55.294Z,100189
2018-04-16T21:45:23.351Z,100187
2018-04-16T21:47:52.164Z,100188
2018-04-16T21:50:21.089Z,100188
2018-04-16T21:52:49.144Z,100186
2018-04-16T21:55:17.959Z,100189
2018-04-16T21:57:46.003Z,100194
2018-04-16T22:00:14.131Z,100208
2018-04-16T22:02:42.183Z,100218
2018-04-16T22:05:10.310Z,100228
2018-04-16T22:07:38.359Z,100240
2018-04-16T22:10:06.411Z,100246
2018-04-16T22:12:34.460Z,100253
2018-04-16T22:15:02.525Z,100253
2018-04-16T22:17:31.350Z,100251
2018-04-16T22:19:59.427Z,100250
2018-04-16T22:22:27.483Z,100249
2018-04-16T22:24:56.327Z,100253
2018-04-16T22:27:24.375Z,100249
2018-04-16T22:29:53.196Z,100255
2018-04-16T22:32:21.251Z,100260
2018-04-16T22:34:49.315Z,100262
2018-04-16T22:37:17.365Z,100260
2018-04-16T22:39:45.448Z,100261
2018-04-16T22:42:13.501Z,100257
2018-04-16T22:44:42.313Z,100265
2018-04-16T22:47:11.124Z,100270
2018-04-16T22:49:39.224Z,100274
2018-04-16T22:52:07.273Z,100278
2018-04-16T22:54:36.076Z,100278
2018-04-16T22:57:04.887Z,100280
2018-04-16T22:59:33.699Z,100287
2018-04-16T23:02:01.744Z,100283
2018-04-16T23:04:29.779Z,100285
2018-04-16T23:06:57.839Z,100294
2018-04-16T23:09:26.660Z,100296
2018-04-16T23:11:54.744Z,100298
2018-04-16T23:14:22.797Z,100298
2018-04-16T23:16:52.352Z,100303
2018-04-16T23:19:20.383Z,100306
2018-04-16T23:21:48.531Z,100305
2018-04-16T23:24:16.563Z,100306
2018-04-16T23:26:44.608Z,100305
2018-04-16T23:29:12.655Z,100314
2018-04-16T23:31:41.467Z,100310
2018-04-16T23:34:09.509Z,100310
2018-04-16T23:36:37.655Z,100316
2018-04-16T23:39:06.475Z,100317
2018-04-16T23:41:34.544Z,100318
2018-04-16T23:44:02.591Z,100321
2018-04-16T23:46:31.404Z,100320
2018-04-16T23:49:00.202Z,100324
2018-04-16T23:51:29.012Z,100328
2018-04-16T23:53:57.052Z,100324
2018-04-16T23:56:25.121Z,100328
2018-04-16T23:58:53.192Z,100323
